Hauptseite
METAR-TAF:

METAR-TAF

Flughäfen :

Lechfeld, Deutschland

Fliegerhorst Lechfeld

Breite: 48-11N, Länge: 010-52E, Höhe: 555 m

Beobachtung

Neuester Wetterbericht von vor 1 Stunde und 7 Minuten, um 07:20 UTC
Wind 5 kt aus West/Südwest
Temperatur 2°C
Luftfeuchtigkeit 100%
Luftdruck 1022 hPa
Sichtweite: 1100 m

METAR: ETSL 180720Z AUTO 24005KT 1100 // ////// 02/02 Q1022 ///

Zeit: 09:27 (08:27 UTC)

Prognose

Neuester Wetterbericht von vor 21 Stunden und 12 Minuten, um 11:15 UTC
Gültige Prognose vom 17 um 11 UTC bis 17 um 18 UTC
Wind 3 kt aus Süd/Südwest
Sichtweite: 6000 m
Geschlossene Wolkendecke in der Höhe von 700 ft
Sprühregen leicht
Zeitweise
vom 17 um 11 UTC bis 17 um 12 UTC
Wind 2 kt aus Südwest
Sichtweite: 1120 m
Geschlossene Wolkendecke in der Höhe von 600 ft
feuchter Dunst

TAF: ETSL 171115Z 1711/1718 20003KT 6000 -DZ OVC007 TEMPO 1711/1712 23002KT 4000 BR OVC006 CANCEL 1120 BY ETGL

Wetterbeobachtungen und Prognosen von mehr als 4000 Flughäfen (METAR und TAF Bericht).

Die verfügbaren Stationen werden durch gelbe und rote Markierungen auf der Karte dargestellt.

Führen Sie die Maus auf sie, um den Namen der Station zu sehen.

Darauf klicken, um die Beobachtung von Wetterbeobachtungen und Prognosen zu sehen.

Um die Karte zu ändern : klicken Sie auf den grünen Tasten mit einem schwarzen Kreuz Zum Vergrößern, auf den grünen Button mit einem Gedankenstrich zu verkleinern, oder auf die grünen Pfeile für benachbarte Karten.


METAR-TAF: